Harare, Zimbabwe
Current Conditions -  °F | °C
As of 6:00 AM on Friday 28 Nov 2014 (Local Time) from FVHA Reporting Station
Clear Clear  
Wind Chill: 64°   Ceiling: Unl
Heat Index: 64°   Visibility: 6mi
Dew Point: 54°   Wind: 10mph
Humidity: 68%   Direction: 60°ENE
Pressure: 30.12"   Gusts: NA
Location:  17.82°S, 31.05°E
Report Text: FVHA 280400Z 06009KT CAVOK 18/12 Q1020 NOSIG
Loading
Personal Weather Stations






























Interactive Weather Map New forecast layout! Learn more

10-Day Weather Forecast

Advertisements
Track Severe Weather on mobile